createdAt,value
2019-04-26T00:00:53.209Z,7.97
2019-04-26T00:03:26.162Z,7.77
2019-04-26T00:05:56.932Z,7.50
2019-04-26T00:08:28.426Z,7.93
2019-04-26T00:11:00.627Z,7.40
2019-04-26T00:13:48.667Z,7.43
2019-04-26T00:16:23.804Z,7.73
2019-04-26T00:18:54.638Z,7.53
2019-04-26T00:21:25.133Z,7.50
2019-04-26T00:23:58.713Z,7.20
2019-04-26T00:26:29.900Z,7.63
2019-04-26T00:29:00.384Z,7.60
2019-04-26T00:31:30.852Z,7.80
2019-04-26T00:34:01.365Z,8.13
2019-04-26T00:36:31.835Z,7.90
2019-04-26T00:39:02.330Z,7.00
2019-04-26T00:41:32.872Z,9.00
2019-04-26T00:44:04.448Z,9.10
2019-04-26T00:46:37.074Z,7.97
2019-04-26T00:49:11.107Z,8.00
2019-04-26T00:51:42.713Z,8.00
2019-04-26T00:54:14.160Z,6.50
2019-04-26T00:56:45.051Z,6.80
2019-04-26T00:59:16.470Z,7.23
2019-04-26T01:01:48.662Z,9.37
2019-04-26T01:04:19.226Z,7.73
2019-04-26T01:06:51.338Z,7.20
2019-04-26T01:09:23.680Z,7.63
2019-04-26T01:11:55.578Z,7.43
2019-04-26T01:14:26.251Z,8.20
2019-04-26T01:16:57.944Z,7.20
2019-04-26T01:19:29.136Z,7.07
2019-04-26T01:22:04.802Z,7.20
2019-04-26T01:24:37.891Z,7.60
2019-04-26T01:27:09.324Z,7.57
2019-04-26T01:29:39.930Z,7.77
2019-04-26T01:32:15.376Z,7.57
2019-04-26T01:34:47.844Z,7.10
2019-04-26T01:37:19.310Z,7.83
2019-04-26T01:39:55.575Z,7.43
2019-04-26T01:42:29.148Z,7.20
2019-04-26T01:45:04.175Z,7.30
2019-04-26T01:47:35.611Z,8.00
2019-04-26T01:50:08.183Z,6.70
2019-04-26T01:52:40.148Z,7.43
2019-04-26T01:55:12.360Z,6.60
2019-04-26T01:57:43.390Z,7.07
2019-04-26T02:00:25.826Z,6.57
2019-04-26T02:02:57.993Z,7.30
2019-04-26T02:05:28.619Z,8.10
2019-04-26T02:07:59.245Z,7.50
2019-04-26T02:10:31.481Z,7.47
2019-04-26T02:13:03.598Z,7.30
2019-04-26T02:15:34.537Z,7.33
2019-04-26T02:18:05.501Z,7.43
2019-04-26T02:21:15.442Z,6.60
2019-04-26T02:23:50.919Z,7.57
2019-04-26T02:26:35.306Z,7.90
2019-04-26T02:29:13.575Z,9.10
2019-04-26T02:31:48.380Z,7.50
2019-04-26T02:34:19.150Z,7.30
2019-04-26T02:36:57.683Z,7.80
2019-04-26T02:39:29.404Z,6.60
2019-04-26T02:42:04.328Z,5.97
2019-04-26T02:44:40.791Z,6.53
2019-04-26T02:47:28.955Z,6.97
2019-04-26T02:50:05.475Z,7.50
2019-04-26T02:53:06.511Z,6.60
2019-04-26T02:56:16.531Z,7.33
2019-04-26T02:59:00.548Z,7.37
2019-04-26T03:01:34.003Z,7.80
2019-04-26T03:04:03.969Z,6.60
2019-04-26T03:07:19.424Z,7.20
2019-04-26T03:09:52.336Z,7.37
2019-04-26T03:12:27.649Z,8.40
2019-04-26T03:15:20.038Z,7.43
2019-04-26T03:17:59.552Z,6.67
2019-04-26T03:20:38.338Z,6.67
2019-04-26T03:23:13.726Z,6.90
2019-04-26T03:26:01.125Z,7.07
2019-04-26T03:28:58.619Z,6.97
2019-04-26T03:31:55.226Z,7.37
2019-04-26T03:34:54.766Z,7.70
2019-04-26T03:38:05.932Z,7.53
2019-04-26T03:41:00.837Z,6.83
2019-04-26T03:43:53.713Z,7.60
2019-04-26T03:46:48.668Z,7.03
2019-04-26T03:49:47.760Z,7.83
2019-04-26T03:52:45.563Z,6.70
2019-04-26T03:55:31.415Z,7.20
2019-04-26T03:58:26.861Z,8.00
2019-04-26T04:01:04.434Z,8.60
2019-04-26T04:03:45.076Z,7.53
2019-04-26T04:06:20.908Z,8.27
2019-04-26T04:09:09.455Z,7.53
2019-04-26T04:12:12.479Z,8.40
2019-04-26T04:15:19.075Z,8.10
2019-04-26T04:17:58.848Z,8.17
2019-04-26T04:20:54.694Z,8.23
2019-04-26T04:23:39.763Z,8.60
2019-04-26T04:26:14.563Z,7.80
2019-04-26T04:29:19.539Z,8.33
2019-04-26T04:32:09.234Z,7.93
2019-04-26T04:34:47.657Z,7.17
2019-04-26T04:37:21.211Z,9.43
2019-04-26T04:40:09.793Z,7.97
2019-04-26T04:42:55.640Z,8.37
2019-04-26T04:46:11.827Z,7.77
2019-04-26T04:49:09.875Z,7.13
2019-04-26T04:52:01.118Z,7.33
2019-04-26T04:55:07.731Z,8.40
2019-04-26T04:57:57.496Z,43.03
2019-04-26T05:01:18.240Z,27.60
2019-04-26T05:04:16.112Z,54.70
2019-04-26T05:07:16.802Z,42.67
2019-04-26T05:10:35.592Z,12.77
2019-04-26T05:13:31.416Z,22.93
2019-04-26T05:16:37.968Z,10.53
2019-04-26T05:19:36.679Z,7.83
2019-04-26T05:22:55.805Z,8.30
2019-04-26T05:26:28.742Z,8.50
2019-04-26T05:29:35.341Z,8.63
2019-04-26T05:32:24.537Z,9.57
2019-04-26T05:35:45.081Z,9.07
2019-04-26T05:38:31.742Z,8.90
2019-04-26T05:41:33.044Z,8.00
2019-04-26T05:44:32.152Z,6.93
2019-04-26T05:47:22.985Z,8.90
2019-04-26T05:50:17.082Z,8.73
2019-04-26T05:53:14.850Z,8.00
2019-04-26T05:56:34.154Z,8.33
2019-04-26T05:59:23.982Z,8.07
2019-04-26T06:02:34.750Z,8.27
2019-04-26T06:05:20.059Z,8.57
2019-04-26T06:08:31.699Z,8.90
2019-04-26T06:11:13.912Z,8.63
2019-04-26T06:14:03.735Z,10.20
2019-04-26T06:16:56.948Z,7.63
2019-04-26T06:19:40.722Z,8.47
2019-04-26T06:22:33.782Z,8.80
2019-04-26T06:25:28.753Z,9.23
2019-04-26T06:28:06.925Z,8.00
2019-04-26T06:30:57.212Z,7.53
2019-04-26T06:33:43.916Z,7.40
2019-04-26T06:36:19.136Z,7.80
2019-04-26T06:39:19.141Z,7.60
2019-04-26T06:42:27.214Z,7.67
2019-04-26T06:45:28.072Z,7.50
2019-04-26T06:48:22.229Z,8.67
2019-04-26T06:51:24.179Z,7.40
2019-04-26T06:54:13.776Z,8.57
2019-04-26T06:57:10.609Z,7.37
2019-04-26T06:59:57.431Z,6.97
2019-04-26T07:02:46.643Z,7.27
2019-04-26T07:05:27.291Z,6.47
2019-04-26T07:08:28.158Z,7.70
2019-04-26T07:11:27.826Z,7.87
2019-04-26T07:14:38.070Z,7.43
2019-04-26T07:17:41.382Z,7.00
2019-04-26T07:20:23.756Z,6.83
2019-04-26T07:23:30.138Z,6.80
2019-04-26T07:26:27.987Z,6.77
2019-04-26T07:29:26.857Z,7.50
2019-04-26T07:32:42.783Z,8.97
2019-04-26T07:35:46.764Z,7.20
2019-04-26T07:39:19.962Z,9.40
2019-04-26T07:42:42.320Z,9.90
2019-04-26T07:45:44.559Z,7.23
2019-04-26T07:48:45.045Z,8.33
2019-04-26T07:52:00.745Z,6.23
2019-04-26T07:55:15.398Z,6.30
2019-04-26T07:57:55.788Z,7.13
2019-04-26T08:00:45.287Z,7.40
2019-04-26T08:03:27.748Z,7.30
2019-04-26T08:06:07.386Z,10.30
2019-04-26T08:08:57.178Z,8.03
2019-04-26T08:11:42.971Z,7.10
2019-04-26T08:14:23.020Z,7.43
2019-04-26T08:17:04.793Z,7.40
2019-04-26T08:19:46.408Z,6.63
2019-04-26T08:22:24.308Z,7.33
2019-04-26T08:24:54.034Z,7.83
2019-04-26T08:27:27.943Z,6.87
2019-04-26T08:30:07.723Z,5.30
2019-04-26T08:32:41.137Z,7.00
2019-04-26T08:35:20.112Z,6.80
2019-04-26T08:37:52.703Z,7.33
2019-04-26T08:40:30.974Z,7.87
2019-04-26T08:43:06.607Z,7.17
2019-04-26T08:46:01.553Z,10.30
2019-04-26T08:48:22.381Z,9.00
2019-04-26T08:50:54.162Z,8.73
2019-04-26T08:53:27.890Z,6.40
2019-04-26T08:56:00.031Z,7.97
2019-04-26T08:58:34.553Z,6.60
2019-04-26T09:01:35.776Z,6.50
2019-04-26T09:04:09.980Z,6.43
2019-04-26T09:06:45.966Z,8.37
2019-04-26T09:09:22.183Z,7.53
2019-04-26T09:11:59.726Z,7.80
2019-04-26T09:14:30.580Z,6.43
2019-04-26T09:17:01.173Z,7.27
2019-04-26T09:19:32.654Z,6.87
2019-04-26T09:22:12.761Z,6.50
2019-04-26T09:24:50.835Z,6.00
2019-04-26T09:27:25.188Z,7.60
2019-04-26T09:30:09.175Z,6.67
2019-04-26T09:32:43.905Z,8.00
2019-04-26T09:35:15.295Z,6.60
2019-04-26T09:37:46.792Z,6.97
2019-04-26T09:40:21.776Z,6.57
2019-04-26T09:46:03.058Z,6.37
2019-04-26T09:48:38.092Z,6.80
2019-04-26T09:51:10.512Z,6.17
2019-04-26T09:53:43.264Z,6.17
2019-04-26T09:56:13.223Z,5.63
2019-04-26T09:58:43.711Z,6.53
2019-04-26T10:01:14.268Z,25.00
2019-04-26T10:03:44.740Z,6.50
2019-04-26T10:06:15.237Z,6.50
2019-04-26T10:08:47.057Z,5.23
2019-04-26T10:11:20.155Z,8.30
2019-04-26T10:14:07.555Z,6.50
2019-04-26T10:16:42.594Z,7.10
2019-04-26T10:19:13.093Z,5.30
2019-04-26T10:21:43.746Z,5.50
2019-04-26T10:24:14.206Z,5.70
2019-04-26T10:26:44.704Z,6.03
2019-04-26T10:29:15.226Z,6.30
2019-04-26T10:31:47.567Z,6.13
2019-04-26T10:34:19.039Z,5.10
2019-04-26T10:36:49.516Z,6.83
2019-04-26T10:39:20.407Z,7.00
2019-04-26T10:41:50.871Z,6.20
2019-04-26T10:44:21.441Z,8.67
2019-04-26T10:46:55.705Z,6.50
2019-04-26T10:49:45.800Z,6.00
2019-04-26T10:52:19.251Z,6.30
2019-04-26T10:54:53.055Z,7.63
2019-04-26T10:57:25.190Z,6.47
2019-04-26T10:59:57.296Z,6.30
2019-04-26T11:02:27.951Z,6.80
2019-04-26T11:04:59.209Z,5.67
2019-04-26T11:07:29.786Z,7.40
2019-04-26T11:10:02.871Z,6.30
2019-04-26T11:12:32.533Z,7.60
2019-04-26T11:15:06.222Z,8.13
2019-04-26T11:17:36.827Z,5.80
2019-04-26T11:20:10.357Z,5.70
2019-04-26T11:22:40.098Z,6.47
2019-04-26T11:25:10.937Z,6.73
2019-04-26T11:27:44.342Z,6.83
2019-04-26T11:30:20.535Z,5.87
2019-04-26T11:32:48.719Z,6.43
2019-04-26T11:35:19.328Z,6.43
2019-04-26T11:37:50.762Z,7.07
2019-04-26T11:40:22.256Z,6.87
2019-04-26T11:42:52.748Z,5.87
2019-04-26T11:45:23.276Z,5.97
2019-04-26T11:47:56.184Z,5.90
2019-04-26T11:50:26.003Z,5.70
2019-04-26T11:52:56.586Z,6.50
2019-04-26T11:55:29.855Z,7.37
2019-04-26T11:58:00.329Z,7.00
2019-04-26T12:00:32.456Z,5.70
2019-04-26T12:03:02.926Z,7.03
2019-04-26T12:05:40.498Z,6.13
2019-04-26T12:08:18.358Z,6.57
2019-04-26T12:10:48.820Z,6.20
2019-04-26T12:13:21.336Z,5.80
2019-04-26T12:15:52.140Z,6.40
2019-04-26T12:18:22.630Z,5.90
2019-04-26T12:20:53.111Z,5.80
2019-04-26T12:23:23.585Z,5.80
2019-04-26T12:25:54.113Z,6.90
2019-04-26T12:28:24.562Z,7.40
2019-04-26T12:30:58.565Z,6.17
2019-04-26T12:33:27.248Z,6.50
2019-04-26T12:35:57.739Z,6.87
2019-04-26T12:38:29.917Z,6.67
2019-04-26T12:41:00.583Z,6.33
2019-04-26T12:43:31.145Z,8.00
2019-04-26T12:46:14.163Z,6.23
2019-04-26T12:48:45.983Z,7.13
2019-04-26T12:51:17.342Z,6.90
2019-04-26T12:53:47.906Z,8.03
2019-04-26T12:56:18.374Z,7.93
2019-04-26T12:58:50.065Z,7.50
2019-04-26T13:01:21.222Z,6.57
2019-04-26T13:04:04.913Z,7.60
2019-04-26T13:06:38.553Z,6.83
2019-04-26T13:09:21.710Z,6.27
2019-04-26T13:11:56.646Z,7.13
2019-04-26T13:14:38.749Z,6.70
2019-04-26T13:17:15.876Z,7.10
2019-04-26T13:19:49.567Z,5.80
2019-04-26T13:22:18.765Z,7.43
2019-04-26T13:24:49.252Z,7.33
2019-04-26T13:27:19.744Z,6.83
2019-04-26T13:30:01.833Z,7.13
2019-04-26T13:32:22.406Z,6.50
2019-04-26T13:34:52.902Z,5.70
2019-04-26T13:37:23.360Z,6.00
2019-04-26T13:39:55.183Z,6.73
2019-04-26T13:42:26.716Z,6.27
2019-04-26T13:45:01.881Z,7.53
2019-04-26T13:47:36.824Z,6.07
2019-04-26T13:50:13.597Z,8.30
2019-04-26T13:52:44.091Z,7.27
2019-04-26T13:55:14.593Z,6.60
2019-04-26T13:57:46.154Z,6.50
2019-04-26T14:00:24.999Z,6.27
2019-04-26T14:02:55.501Z,7.00
2019-04-26T14:05:25.993Z,6.60
2019-04-26T14:07:56.483Z,6.57
2019-04-26T14:10:26.954Z,7.30
2019-04-26T14:12:57.455Z,7.00
2019-04-26T14:15:28.089Z,6.70
2019-04-26T14:18:00.330Z,7.33
2019-04-26T14:20:30.958Z,6.57
2019-04-26T14:23:19.400Z,7.07
2019-04-26T14:25:55.406Z,7.90
2019-04-26T14:28:25.241Z,7.63
2019-04-26T14:30:55.855Z,7.33
2019-04-26T14:33:27.144Z,7.27
2019-04-26T14:35:58.514Z,6.93
2019-04-26T14:38:35.659Z,7.43
2019-04-26T14:41:04.287Z,7.43
2019-04-26T14:43:40.447Z,7.73
2019-04-26T14:46:05.813Z,7.93
2019-04-26T14:48:36.758Z,6.90
2019-04-26T14:51:12.258Z,8.67
2019-04-26T14:53:40.744Z,7.47
2019-04-26T14:56:11.231Z,7.43
2019-04-26T14:58:44.122Z,7.50
2019-04-26T15:01:35.208Z,7.40
2019-04-26T15:04:15.588Z,7.63
2019-04-26T15:06:53.449Z,8.40
2019-04-26T15:09:29.734Z,6.90
2019-04-26T15:11:59.517Z,9.57
2019-04-26T15:14:26.985Z,10.80
2019-04-26T15:16:57.535Z,12.30
2019-04-26T15:19:27.983Z,17.97
2019-04-26T15:21:59.187Z,24.30
2019-04-26T15:24:34.985Z,9.90
2019-04-26T15:27:03.425Z,8.43
2019-04-26T15:29:34.252Z,8.60
2019-04-26T15:32:05.280Z,8.10
2019-04-26T15:34:35.900Z,7.60
2019-04-26T15:37:06.455Z,8.40
2019-04-26T15:39:44.577Z,6.97
2019-04-26T15:45:16.820Z,27.67
2019-04-26T15:47:56.861Z,8.80
2019-04-26T15:50:41.030Z,8.13
2019-04-26T15:53:14.562Z,7.60
2019-04-26T15:55:43.714Z,7.97
2019-04-26T15:58:14.201Z,7.43
2019-04-26T16:00:44.826Z,7.77
2019-04-26T16:03:15.879Z,8.63
2019-04-26T16:05:48.070Z,7.63
2019-04-26T16:08:18.785Z,9.20
2019-04-26T16:10:50.135Z,8.37
2019-04-26T16:13:21.349Z,7.97
2019-04-26T16:15:53.175Z,9.23
2019-04-26T16:18:23.662Z,9.47
2019-04-26T16:20:54.246Z,10.40
2019-04-26T16:23:24.753Z,13.73
2019-04-26T16:25:55.217Z,10.30
2019-04-26T16:28:27.363Z,7.20
2019-04-26T16:31:15.244Z,8.60
2019-04-26T16:34:06.645Z,9.90
2019-04-26T16:36:36.487Z,8.80
2019-04-26T16:39:13.120Z,8.07
2019-04-26T16:41:43.649Z,7.97
2019-04-26T16:44:14.727Z,8.20
2019-04-26T16:46:45.228Z,9.30
2019-04-26T16:49:17.389Z,8.40
2019-04-26T16:51:54.525Z,8.50
2019-04-26T16:54:26.490Z,11.20
2019-04-26T16:56:59.003Z,10.70
2019-04-26T16:59:26.849Z,11.87
2019-04-26T17:02:01.661Z,12.10
2019-04-26T17:04:32.484Z,11.00
2019-04-26T17:07:04.790Z,8.30
2019-04-26T17:09:54.444Z,9.83
2019-04-26T17:12:06.385Z,8.43
2019-04-26T17:14:40.662Z,9.17
2019-04-26T17:17:10.742Z,8.80
2019-04-26T17:19:41.259Z,56.30
2019-04-26T17:22:23.279Z,59.50
2019-04-26T17:24:53.595Z,24.07
2019-04-26T17:27:25.543Z,13.80
2019-04-26T17:29:58.466Z,13.30
2019-04-26T17:32:29.080Z,14.10
2019-04-26T17:35:03.959Z,12.77
2019-04-26T17:37:31.766Z,11.27
2019-04-26T17:40:02.359Z,25.20
2019-04-26T17:42:36.362Z,22.47
2019-04-26T17:45:07.955Z,18.57
2019-04-26T17:47:40.249Z,17.97
2019-04-26T17:50:12.034Z,15.17
2019-04-26T17:52:44.213Z,11.03
2019-04-26T17:55:15.218Z,11.43
2019-04-26T17:57:48.591Z,11.23
2019-04-26T18:00:26.394Z,11.00
2019-04-26T18:02:52.267Z,9.93
2019-04-26T18:05:24.375Z,10.80
2019-04-26T18:07:58.424Z,10.40
2019-04-26T18:10:27.128Z,11.07
2019-04-26T18:13:01.516Z,16.60
2019-04-26T18:15:33.327Z,17.70
2019-04-26T18:18:23.300Z,14.10
2019-04-26T18:20:59.374Z,18.90
2019-04-26T18:23:31.518Z,15.53
2019-04-26T18:26:03.272Z,12.07
2019-04-26T18:28:34.077Z,11.23
2019-04-26T18:31:06.250Z,13.47
2019-04-26T18:33:36.800Z,11.40
2019-04-26T18:36:07.359Z,12.30
2019-04-26T18:38:37.837Z,14.10
2019-04-26T18:41:08.488Z,14.00
2019-04-26T18:43:38.970Z,14.30
2019-04-26T18:46:13.770Z,14.17
2019-04-26T18:48:44.266Z,14.83
2019-04-26T18:51:14.820Z,15.60
2019-04-26T18:53:48.256Z,13.60
2019-04-26T18:56:18.841Z,13.33
2019-04-26T18:58:51.522Z,13.67
2019-04-26T19:01:21.648Z,13.77
2019-04-26T19:03:53.982Z,14.30
2019-04-26T19:06:31.002Z,15.80
2019-04-26T19:09:01.508Z,13.17
2019-04-26T19:11:29.463Z,13.90
2019-04-26T19:14:15.004Z,14.03
2019-04-26T19:16:46.469Z,14.73
2019-04-26T19:19:33.162Z,22.43
2019-04-26T19:22:05.439Z,13.63
2019-04-26T19:24:38.562Z,13.87
2019-04-26T19:27:08.213Z,13.00
2019-04-26T19:29:38.683Z,14.23
2019-04-26T19:32:09.185Z,14.47
2019-04-26T19:34:39.654Z,14.40
2019-04-26T19:37:10.232Z,13.40
2019-04-26T19:39:42.606Z,13.67
2019-04-26T19:42:12.924Z,13.97
2019-04-26T19:44:43.390Z,14.77
2019-04-26T19:47:22.674Z,21.47
2019-04-26T19:49:54.899Z,22.47
2019-04-26T19:52:33.626Z,13.00
2019-04-26T19:55:14.653Z,13.90
2019-04-26T19:57:53.660Z,13.00
2019-04-26T20:00:24.596Z,13.10
2019-04-26T20:02:55.877Z,11.13
2019-04-26T20:05:26.455Z,10.50
2019-04-26T20:07:58.505Z,10.60
2019-04-26T20:10:29.139Z,11.93
2019-04-26T20:12:59.701Z,9.23
2019-04-26T20:15:31.841Z,10.13
2019-04-26T20:18:04.021Z,11.33
2019-04-26T20:20:36.186Z,13.23
2019-04-26T20:23:20.151Z,10.60
2019-04-26T20:25:52.766Z,10.30
2019-04-26T20:28:23.133Z,11.47
2019-04-26T20:31:05.817Z,31.23
2019-04-26T20:33:31.157Z,21.30
2019-04-26T20:36:04.765Z,10.57
2019-04-26T20:38:42.825Z,10.60
2019-04-26T20:41:07.253Z,10.60
2019-04-26T20:43:44.385Z,10.77
2019-04-26T20:46:14.855Z,10.47
2019-04-26T20:48:42.680Z,10.80
2019-04-26T20:51:13.234Z,11.50
2019-04-26T20:53:43.980Z,12.17
2019-04-26T20:56:18.232Z,9.90
2019-04-26T20:58:47.312Z,11.83
2019-04-26T21:01:17.912Z,10.17
2019-04-26T21:03:48.481Z,10.43
2019-04-26T21:06:19.014Z,11.07
2019-04-26T21:08:49.462Z,10.17
2019-04-26T21:11:21.683Z,10.70
2019-04-26T21:13:52.461Z,9.93
2019-04-26T21:16:22.967Z,9.80
2019-04-26T21:18:53.427Z,10.33
2019-04-26T21:21:24.020Z,10.90
2019-04-26T21:23:54.562Z,10.90
2019-04-26T21:26:42.448Z,10.43
2019-04-26T21:29:20.564Z,9.87
2019-04-26T21:32:07.544Z,11.57
2019-04-26T21:34:44.962Z,9.93
2019-04-26T21:37:20.522Z,12.30
2019-04-26T21:39:53.286Z,10.10
2019-04-26T21:42:25.881Z,10.93
2019-04-26T21:44:56.430Z,9.60
2019-04-26T21:47:27.649Z,11.30
2019-04-26T21:50:00.842Z,9.63
2019-04-26T21:52:31.400Z,10.80
2019-04-26T21:55:01.878Z,9.23
2019-04-26T21:57:40.349Z,9.93
2019-04-26T22:00:13.820Z,9.23
2019-04-26T22:02:44.540Z,9.33
2019-04-26T22:05:16.242Z,9.00
2019-04-26T22:07:47.750Z,10.33
2019-04-26T22:10:25.800Z,10.47
2019-04-26T22:12:56.289Z,9.33
2019-04-26T22:15:44.258Z,10.27
2019-04-26T22:18:21.710Z,10.63
2019-04-26T22:21:04.951Z,9.33
2019-04-26T22:23:37.070Z,9.50
2019-04-26T22:26:08.629Z,9.53
2019-04-26T22:28:39.179Z,9.90
2019-04-26T22:31:13.097Z,9.77
2019-04-26T22:33:44.652Z,8.90
2019-04-26T22:36:15.315Z,10.17
2019-04-26T22:38:45.785Z,9.50
2019-04-26T22:41:16.292Z,9.63
2019-04-26T22:43:49.575Z,9.27
2019-04-26T22:46:28.247Z,9.57
2019-04-26T22:49:01.225Z,9.20
2019-04-26T22:51:28.534Z,10.53
2019-04-26T22:54:02.587Z,9.63
2019-04-26T22:56:37.006Z,9.90
2019-04-26T22:59:07.994Z,8.90
2019-04-26T23:01:39.102Z,9.87
2019-04-26T23:04:10.650Z,9.93
2019-04-26T23:06:42.478Z,10.40
2019-04-26T23:09:16.934Z,9.30
2019-04-26T23:11:47.540Z,8.83
2019-04-26T23:14:24.467Z,10.57
2019-04-26T23:17:08.067Z,8.30
2019-04-26T23:19:38.691Z,9.77
2019-04-26T23:22:10.178Z,9.07
2019-04-26T23:24:40.687Z,10.03
2019-04-26T23:27:16.368Z,9.87
2019-04-26T23:29:45.892Z,10.77
2019-04-26T23:32:18.569Z,9.43
2019-04-26T23:34:49.481Z,9.03
2019-04-26T23:37:24.244Z,9.00
2019-04-26T23:39:53.632Z,9.77
2019-04-26T23:42:25.079Z,10.10
2019-04-26T23:44:55.793Z,9.90
2019-04-26T23:47:26.283Z,8.50
2019-04-26T23:49:57.142Z,9.03
2019-04-26T23:52:29.357Z,9.03
2019-04-26T23:55:00.381Z,8.80
2019-04-26T23:57:31.284Z,8.40
